Time;durP1;ratioP1;P1;durP2;ratioP2;P2;SDS_P1;SDS_P2;PMS_P1;PMS_P2;Temp;Humidity;BMP_temperature;BMP_pressure;BME280_temperature;BME280_humidity;BME280_pressure;Samples;Min_cycle;Max_cycle;Signal;HPM_P1;HPM_P2
2021/12/16 00:09:43;;;;;;;8.60;7.03;;;3.50;99.90;;;;;;4996580;28;20201;-74
2021/12/16 00:33:58;;;;;;;7.70;7.00;;;3.40;99.90;;;;;;4997130;28;20181;-74
2021/12/16 00:36:25;;;;;;;9.13;7.33;;;3.30;99.90;;;;;;4979353;28;20241;-74
2021/12/16 00:38:51;;;;;;;7.80;7.00;;;3.40;99.90;;;;;;4996621;28;20205;-74
2021/12/16 00:41:17;;;;;;;7.67;6.87;;;3.40;99.90;;;;;;4979087;28;20291;-74
2021/12/16 00:44:08;;;;;;;7.87;7.07;;;3.40;99.90;;;;;;4996678;28;20188;-74
2021/12/16 00:46:55;;;;;;;7.73;6.93;;;3.40;99.90;;;;;;4996601;28;20180;-74
2021/12/16 00:49:21;;;;;;;9.87;8.00;;;3.40;99.90;;;;;;4997512;28;20200;-74
2021/12/16 00:54:34;;;;;;;8.20;7.40;;;3.50;99.90;;;;;;4996726;28;20226;-73
2021/12/16 00:57:07;;;;;;;8.00;7.20;;;3.50;99.90;;;;;;4996560;28;20715;-74
2021/12/16 00:59:37;;;;;;;8.33;6.87;;;3.50;99.90;;;;;;4996117;28;20560;-74
2021/12/16 01:02:19;;;;;;;8.87;7.97;;;3.50;99.90;;;;;;4996356;28;20180;-74
2021/12/16 01:08:11;;;;;;;7.30;6.60;;;3.40;99.90;;;;;;4996581;28;20651;-74
2021/12/16 01:45:31;;;;;;;8.60;7.70;;;3.20;99.90;;;;;;4996316;28;20183;-74
2021/12/16 01:50:39;;;;;;;8.53;7.43;;;3.30;99.90;;;;;;4995437;28;20530;-73
2021/12/16 01:56:00;;;;;;;8.83;7.93;;;3.20;99.90;;;;;;4995637;28;20238;-73
2021/12/16 01:58:29;;;;;;;9.33;7.67;;;3.20;99.90;;;;;;4995162;28;20231;-74
2021/12/16 02:01:17;;;;;;;9.33;8.03;;;3.20;99.90;;;;;;4977714;28;20200;-74
2021/12/16 02:03:49;;;;;;;9.03;7.43;;;3.10;99.90;;;;;;4995416;28;20646;-73
2021/12/16 02:09:04;;;;;;;9.47;8.03;;;3.10;99.90;;;;;;4995269;28;20198;-74
2021/12/16 02:28:13;;;;;;;10.00;8.33;;;3.10;99.90;;;;;;4994777;28;20239;-74
2021/12/16 02:36:23;;;;;;;11.03;8.43;;;3.00;99.90;;;;;;4994642;28;20175;-74
2021/12/16 02:38:51;;;;;;;8.97;7.93;;;3.10;99.90;;;;;;4994325;28;20294;-74
2021/12/16 02:41:17;;;;;;;11.10;8.80;;;3.10;99.90;;;;;;4996948;28;20204;-74
2021/12/16 02:44:13;;;;;;;16.10;9.60;;;3.20;99.90;;;;;;4976980;28;20245;-74
2021/12/16 02:49:24;;;;;;;10.17;7.97;;;3.10;99.90;;;;;;4992985;28;20219;-73
2021/12/16 02:51:51;;;;;;;11.93;9.03;;;3.10;99.90;;;;;;4976289;28;20193;-73
2021/12/16 02:54:17;;;;;;;9.97;8.77;;;3.20;99.90;;;;;;4992697;28;20182;-74
2021/12/16 02:56:43;;;;;;;10.73;8.67;;;3.10;99.90;;;;;;4992310;28;20686;-74
2021/12/16 02:59:09;;;;;;;10.73;9.27;;;3.10;99.90;;;;;;4992365;28;20207;-74
2021/12/16 03:01:42;;;;;;;9.90;8.53;;;3.10;99.90;;;;;;4989488;28;20209;-74
2021/12/16 03:04:12;;;;;;;12.93;9.57;;;3.00;99.90;;;;;;4974872;28;20680;-74
2021/12/16 03:06:40;;;;;;;13.47;9.43;;;3.10;99.90;;;;;;4992200;28;20231;-74
2021/12/16 03:09:09;;;;;;;10.93;8.87;;;3.10;99.90;;;;;;4992402;28;20199;-73
2021/12/16 03:19:54;;;;;;;10.40;8.43;;;3.00;99.90;;;;;;4948154;28;20722;-74
2021/12/16 03:22:48;;;;;;;10.40;8.10;;;3.00;99.90;;;;;;4993114;28;20654;-73
2021/12/16 03:25:25;;;;;;;11.63;8.87;;;3.00;99.90;;;;;;4980698;28;20180;-73
2021/12/16 03:33:30;;;;;;;17.07;10.70;;;3.10;99.90;;;;;;4975059;28;20194;-74
2021/12/16 03:36:08;;;;;;;32.07;14.53;;;3.20;99.90;;;;;;4977302;28;20185;-73
2021/12/16 03:38:37;;;;;;;14.43;9.27;;;3.10;99.90;;;;;;4973604;28;20721;-73
2021/12/16 03:41:05;;;;;;;13.20;10.30;;;3.10;99.90;;;;;;4956725;28;20211;-73
2021/12/16 03:43:33;;;;;;;13.40;9.57;;;3.10;99.90;;;;;;4974536;28;20188;-73
2021/12/16 03:48:55;;;;;;;11.73;9.17;;;3.20;99.90;;;;;;4979134;28;20576;-75
2021/12/16 03:51:27;;;;;;;12.33;9.27;;;3.20;99.90;;;;;;4978571;28;20184;-75
2021/12/16 03:54:23;;;;;;;10.97;8.50;;;3.20;99.90;;;;;;4977737;28;20199;-75
2021/12/16 03:56:49;;;;;;;10.03;8.03;;;3.20;99.90;;;;;;4968299;28;20196;-76
2021/12/16 03:59:18;;;;;;;12.77;8.93;;;3.10;99.90;;;;;;4960462;28;20836;-75
2021/12/16 04:01:44;;;;;;;10.67;8.77;;;3.10;99.90;;;;;;4976284;28;20625;-75
2021/12/16 04:04:10;;;;;;;12.63;8.90;;;3.10;99.90;;;;;;4975936;28;20576;-75
2021/12/16 04:06:37;;;;;;;13.87;10.27;;;3.20;99.90;;;;;;4981431;28;20188;-75
2021/12/16 04:09:11;;;;;;;14.90;10.03;;;3.20;99.90;;;;;;4981133;28;20196;-76
2021/12/16 04:11:41;;;;;;;18.20;11.23;;;3.20;99.90;;;;;;4979184;28;20196;-75
2021/12/16 04:14:10;;;;;;;12.17;8.80;;;3.20;99.90;;;;;;4976952;28;20190;-75
2021/12/16 04:16:49;;;;;;;12.60;8.97;;;3.10;99.90;;;;;;4977296;28;20649;-75
2021/12/16 04:19:22;;;;;;;13.20;8.57;;;3.10;99.90;;;;;;4972696;28;20231;-75
2021/12/16 04:21:53;;;;;;;13.20;8.93;;;3.20;99.90;;;;;;4993434;28;20197;-75
2021/12/16 04:24:19;;;;;;;12.53;9.27;;;3.10;99.90;;;;;;4993416;28;20184;-75
2021/12/16 04:26:46;;;;;;;14.70;9.33;;;3.20;99.90;;;;;;4995496;28;20179;-75
2021/12/16 04:29:12;;;;;;;11.03;8.47;;;3.20;99.90;;;;;;4994648;28;20219;-75
2021/12/16 04:31:39;;;;;;;10.30;8.27;;;3.20;99.90;;;;;;4994620;28;20551;-75
2021/12/16 04:34:06;;;;;;;12.87;8.80;;;3.20;99.90;;;;;;4978465;28;20195;-75
2021/12/16 04:36:33;;;;;;;12.77;9.33;;;3.20;99.90;;;;;;4996725;28;20191;-75
2021/12/16 04:38:59;;;;;;;13.00;8.67;;;3.10;99.90;;;;;;4996475;28;20196;-75
2021/12/16 04:41:27;;;;;;;13.83;9.20;;;3.10;99.90;;;;;;4981807;28;20390;-75
2021/12/16 04:43:55;;;;;;;11.30;8.53;;;3.20;99.90;;;;;;5007891;28;20211;-75
2021/12/16 04:46:25;;;;;;;11.53;8.33;;;3.10;99.90;;;;;;4996633;28;20551;-75
2021/12/16 04:48:53;;;;;;;11.43;8.53;;;3.20;99.90;;;;;;4969895;28;20207;-75
2021/12/16 04:51:24;;;;;;;12.27;8.20;;;3.20;99.90;;;;;;4996388;28;20198;-75
2021/12/16 04:53:50;;;;;;;11.30;7.97;;;3.20;99.90;;;;;;4996090;28;20216;-75
2021/12/16 04:56:17;;;;;;;11.10;7.60;;;3.10;99.90;;;;;;4995706;28;20247;-75
2021/12/16 04:58:46;;;;;;;9.00;7.43;;;3.20;99.90;;;;;;4996271;28;20219;-75
2021/12/16 05:01:12;;;;;;;7.60;6.17;;;3.10;99.90;;;;;;4977469;28;20201;-75
2021/12/16 05:03:38;;;;;;;8.13;6.43;;;3.10;99.90;;;;;;4996136;28;20263;-75
2021/12/16 05:06:08;;;;;;;8.27;6.60;;;3.70;99.90;;;;;;4974248;28;20205;-75
2021/12/16 05:08:34;;;;;;;9.10;7.00;;;3.20;99.90;;;;;;4989587;28;20734;-75
2021/12/16 05:11:02;;;;;;;10.40;6.53;;;3.20;99.90;;;;;;4994719;28;20191;-75
2021/12/16 05:13:29;;;;;;;7.13;6.17;;;3.10;99.90;;;;;;4996149;28;20191;-75
2021/12/16 05:16:01;;;;;;;8.93;6.30;;;3.10;99.90;;;;;;4977867;28;20204;-75
2021/12/16 05:18:31;;;;;;;7.17;5.83;;;3.10;99.90;;;;;;4996228;28;20580;-75
2021/12/16 05:21:03;;;;;;;6.57;5.87;;;3.20;99.90;;;;;;4996059;28;20195;-75
2021/12/16 05:28:55;;;;;;;7.63;6.03;;;3.20;99.90;;;;;;4997932;28;20220;-74
2021/12/16 05:31:23;;;;;;;6.43;4.97;;;3.10;99.90;;;;;;4995821;28;20182;-75
2021/12/16 05:33:50;;;;;;;6.97;5.10;;;3.10;99.90;;;;;;4995839;28;20640;-75
2021/12/16 05:36:16;;;;;;;7.50;5.60;;;3.10;99.90;;;;;;4995641;28;20195;-75
2021/12/16 05:38:41;;;;;;;5.97;4.73;;;3.10;99.90;;;;;;4995920;28;20200;-75
2021/12/16 05:41:10;;;;;;;5.90;4.33;;;3.10;99.90;;;;;;4995457;28;20549;-75
2021/12/16 05:43:36;;;;;;;6.67;4.50;;;3.00;99.90;;;;;;4978157;28;20314;-75
2021/12/16 05:46:02;;;;;;;5.40;4.77;;;2.90;99.90;;;;;;4995505;28;20184;-75
2021/12/16 05:48:32;;;;;;;6.20;5.60;;;3.00;99.90;;;;;;4995430;28;20198;-75
2021/12/16 05:51:02;;;;;;;5.10;4.30;;;2.90;99.90;;;;;;4995682;28;20526;-74
2021/12/16 05:53:29;;;;;;;5.50;4.83;;;2.90;99.90;;;;;;4978052;28;20207;-75
2021/12/16 05:55:56;;;;;;;6.27;5.17;;;2.90;99.90;;;;;;4978347;28;20187;-75
2021/12/16 05:58:23;;;;;;;4.20;3.77;;;2.90;99.90;;;;;;4995871;28;20287;-76
2021/12/16 06:00:52;;;;;;;4.13;3.83;;;2.90;99.90;;;;;;4978425;28;20195;-75
2021/12/16 06:03:18;;;;;;;5.40;4.90;;;2.90;99.90;;;;;;4978255;28;20553;-75
2021/12/16 06:05:44;;;;;;;4.97;4.47;;;2.90;99.90;;;;;;4994406;28;20184;-75
2021/12/16 06:08:10;;;;;;;4.30;3.90;;;3.00;99.90;;;;;;4995332;28;20247;-75
2021/12/16 06:13:25;;;;;;;7.93;3.80;;;2.90;99.90;;;;;;4980962;28;20192;-75
2021/12/16 06:26:45;;;;;;;3.90;3.53;;;2.90;99.90;;;;;;4994649;28;20709;-76
2021/12/16 06:29:10;;;;;;;3.27;3.07;;;2.90;99.90;;;;;;4994536;28;20657;-76
2021/12/16 06:31:36;;;;;;;3.73;3.43;;;2.80;99.90;;;;;;4993136;28;20703;-76
2021/12/16 06:34:03;;;;;;;4.40;3.50;;;2.90;99.90;;;;;;4975858;28;20215;-76
2021/12/16 06:36:28;;;;;;;3.23;2.93;;;2.90;99.90;;;;;;4993158;28;20179;-75
2021/12/16 06:38:54;;;;;;;3.20;2.90;;;2.90;99.90;;;;;;4968090;28;20285;-76
2021/12/16 06:41:21;;;;;;;3.97;3.03;;;2.90;99.90;;;;;;4984390;28;20210;-75
2021/12/16 06:43:49;;;;;;;3.80;3.50;;;3.00;99.90;;;;;;4986082;28;20175;-75
2021/12/16 06:46:19;;;;;;;3.40;3.10;;;2.90;99.90;;;;;;4996754;28;20180;-76
2021/12/16 06:48:48;;;;;;;8.77;5.90;;;3.00;99.90;;;;;;4995019;28;20624;-74
2021/12/16 06:51:33;;;;;;;3.97;3.37;;;2.90;99.90;;;;;;4994860;28;20186;-75
2021/12/16 06:54:06;;;;;;;4.00;3.60;;;2.90;99.90;;;;;;4990245;28;20195;-74
2021/12/16 06:56:48;;;;;;;4.30;3.90;;;2.80;99.90;;;;;;4986779;28;20659;-75
2021/12/16 06:59:28;;;;;;;5.80;4.00;;;2.90;99.90;;;;;;4994094;28;20200;-74
2021/12/16 07:04:43;;;;;;;4.80;4.40;;;2.90;99.90;;;;;;4994991;28;20697;-74
2021/12/16 07:07:10;;;;;;;7.33;4.77;;;2.90;99.90;;;;;;4994676;28;20222;-74
2021/12/16 07:09:36;;;;;;;5.40;4.60;;;2.80;99.90;;;;;;4994261;28;20196;-72
2021/12/16 07:12:04;;;;;;;6.10;4.77;;;2.90;99.90;;;;;;4994172;28;20635;-75
2021/12/16 07:14:38;;;;;;;6.63;6.00;;;2.90;99.90;;;;;;4993514;28;20188;-75
2021/12/16 07:17:11;;;;;;;9.17;8.23;;;2.90;99.90;;;;;;4991352;28;20179;-75
2021/12/16 07:19:38;;;;;;;6.80;6.10;;;2.90;99.90;;;;;;4975844;28;20234;-74
2021/12/16 07:22:07;;;;;;;6.40;5.43;;;2.90;99.90;;;;;;4992530;28;20180;-75
2021/12/16 07:24:33;;;;;;;8.20;6.53;;;2.90;99.90;;;;;;4993078;28;20192;-75
2021/12/16 07:26:59;;;;;;;9.07;7.27;;;2.90;99.90;;;;;;4992234;28;20259;-74
2021/12/16 07:29:27;;;;;;;8.10;7.20;;;2.90;99.90;;;;;;4987563;28;20648;-75
2021/12/16 07:31:53;;;;;;;9.33;8.00;;;2.90;99.90;;;;;;4990511;28;20214;-75
2021/12/16 07:34:19;;;;;;;9.20;8.20;;;2.90;99.90;;;;;;4991096;28;20554;-75
2021/12/16 07:36:46;;;;;;;8.60;7.50;;;2.90;99.90;;;;;;4991860;28;20215;-75
2021/12/16 07:39:14;;;;;;;9.40;7.67;;;2.80;99.90;;;;;;4991599;28;20199;-75
2021/12/16 07:41:43;;;;;;;9.50;8.47;;;2.90;99.90;;;;;;4974770;28;20200;-75
2021/12/16 07:44:12;;;;;;;11.67;8.53;;;2.90;99.90;;;;;;4976427;28;20212;-75
2021/12/16 07:46:40;;;;;;;10.40;8.57;;;2.90;99.90;;;;;;4976515;28;20203;-74
2021/12/16 07:49:09;;;;;;;8.10;7.27;;;2.90;99.90;;;;;;4990532;28;20319;-75
2021/12/16 07:51:35;;;;;;;9.10;8.20;;;2.90;99.90;;;;;;4975750;28;20765;-75
2021/12/16 07:54:01;;;;;;;12.10;7.77;;;2.90;99.90;;;;;;4992974;28;20264;-74
2021/12/16 07:56:27;;;;;;;8.40;7.17;;;2.90;99.90;;;;;;4991680;28;20705;-74
2021/12/16 07:58:53;;;;;;;7.83;7.13;;;2.80;99.90;;;;;;4974994;28;20211;-74
2021/12/16 08:01:19;;;;;;;8.90;8.00;;;2.90;99.90;;;;;;4976153;28;20203;-75
2021/12/16 08:03:45;;;;;;;9.43;7.53;;;2.90;99.90;;;;;;4993663;28;20225;-74
2021/12/16 08:06:20;;;;;;;11.30;7.83;;;2.90;99.90;;;;;;4993987;28;20176;-74
2021/12/16 08:08:47;;;;;;;8.77;7.13;;;2.80;99.90;;;;;;4993756;28;20670;-74
2021/12/16 08:11:12;;;;;;;8.07;7.17;;;2.90;99.90;;;;;;4975587;28;20188;-72
2021/12/16 08:13:38;;;;;;;9.43;7.97;;;2.80;99.90;;;;;;4995128;28;20211;-72
2021/12/16 08:16:04;;;;;;;8.60;7.37;;;3.00;99.90;;;;;;4993298;28;20553;-74
2021/12/16 08:18:31;;;;;;;12.73;9.10;;;2.90;99.90;;;;;;4993299;28;20216;-74
2021/12/16 08:20:58;;;;;;;9.93;8.50;;;2.90;99.90;;;;;;4975285;28;20671;-71
2021/12/16 08:23:24;;;;;;;12.93;8.87;;;2.90;99.90;;;;;;4975813;28;20186;-75
2021/12/16 08:25:50;;;;;;;10.43;9.10;;;2.90;99.90;;;;;;4974408;28;20259;-74
2021/12/16 08:28:16;;;;;;;12.60;8.83;;;2.90;99.90;;;;;;4991004;28;20632;-75
2021/12/16 08:30:46;;;;;;;12.17;9.40;;;2.90;99.90;;;;;;4996157;28;20265;-76
2021/12/16 08:33:13;;;;;;;11.93;9.70;;;2.90;99.90;;;;;;4978718;28;20209;-76
2021/12/16 08:35:45;;;;;;;13.77;9.63;;;3.00;99.90;;;;;;4996036;28;20176;-76
2021/12/16 08:38:13;;;;;;;10.67;8.27;;;3.00;99.90;;;;;;4993942;28;20556;-73
2021/12/16 08:40:40;;;;;;;12.37;9.80;;;3.00;99.90;;;;;;4976860;28;20206;-74
2021/12/16 08:43:07;;;;;;;12.90;9.47;;;3.10;99.90;;;;;;4976789;28;20702;-72
2021/12/16 08:45:33;;;;;;;13.23;8.87;;;3.10;99.90;;;;;;4994051;28;20178;-75
2021/12/16 08:48:00;;;;;;;13.80;8.70;;;3.00;99.90;;;;;;4976482;28;20281;-74
2021/12/16 08:50:30;;;;;;;11.90;8.80;;;3.00;99.90;;;;;;4977897;28;20196;-75
2021/12/16 08:52:58;;;;;;;14.13;8.93;;;3.00;99.90;;;;;;4995400;28;20188;-74
2021/12/16 08:55:24;;;;;;;11.00;8.97;;;3.00;99.90;;;;;;4995233;28;20193;-74
2021/12/16 08:57:50;;;;;;;13.37;9.87;;;3.10;99.90;;;;;;4994462;28;20186;-76
2021/12/16 09:00:25;;;;;;;11.13;9.00;;;3.00;99.90;;;;;;4991632;28;20203;-74
2021/12/16 09:02:51;;;;;;;13.47;9.10;;;3.10;99.90;;;;;;4976805;28;20180;-74
2021/12/16 09:05:17;;;;;;;14.10;9.70;;;3.00;99.90;;;;;;4995567;28;20663;-74
2021/12/16 09:07:46;;;;;;;14.87;9.00;;;3.10;99.90;;;;;;4977042;28;20192;-75
2021/12/16 09:10:14;;;;;;;10.60;7.63;;;3.10;99.90;;;;;;4975752;28;20205;-75
2021/12/16 09:13:00;;;;;;;10.70;7.70;;;3.30;99.90;;;;;;4976591;28;20655;-75
2021/12/16 09:15:26;;;;;;;12.10;8.13;;;3.10;99.90;;;;;;4994319;28;20188;-75
2021/12/16 09:17:53;;;;;;;11.23;8.23;;;3.10;99.90;;;;;;4993858;28;20659;-76
2021/12/16 09:20:20;;;;;;;9.90;7.60;;;3.20;99.90;;;;;;4993250;28;20271;-75
2021/12/16 09:22:47;;;;;;;10.50;7.50;;;3.20;99.90;;;;;;4993850;28;20180;-75
2021/12/16 09:25:13;;;;;;;10.13;7.50;;;3.20;99.90;;;;;;4976864;28;20672;-74
2021/12/16 09:27:41;;;;;;;8.90;7.00;;;3.20;99.90;;;;;;4989801;28;20185;-75
2021/12/16 09:30:09;;;;;;;12.13;7.63;;;3.20;99.90;;;;;;4939378;28;1124075;-75
2021/12/16 09:32:36;;;;;;;13.63;8.90;;;3.20;99.90;;;;;;4979148;28;20199;-76
2021/12/16 09:35:03;;;;;;;11.87;7.73;;;3.30;99.90;;;;;;4978914;28;20264;-75
2021/12/16 09:37:29;;;;;;;10.10;7.13;;;3.40;99.90;;;;;;4963191;28;20621;-76
2021/12/16 09:39:56;;;;;;;11.17;8.00;;;3.30;99.90;;;;;;4978390;28;20300;-76
2021/12/16 09:42:26;;;;;;;9.83;7.23;;;3.50;99.90;;;;;;4986195;28;20541;-74
2021/12/16 09:44:53;;;;;;;9.13;7.57;;;3.30;99.90;;;;;;4965488;28;20186;-76
2021/12/16 09:47:21;;;;;;;12.70;7.27;;;3.30;99.90;;;;;;4994866;28;20176;-75
2021/12/16 09:49:47;;;;;;;11.40;6.93;;;3.40;99.90;;;;;;4991332;28;20226;-75
2021/12/16 09:52:13;;;;;;;12.23;10.57;;;3.40;99.90;;;;;;4984114;28;20200;-75
2021/12/16 09:54:42;;;;;;;10.33;6.40;;;3.50;99.90;;;;;;4988661;28;20184;-76
2021/12/16 09:57:10;;;;;;;10.17;7.10;;;3.50;99.90;;;;;;4987300;28;20267;-76
2021/12/16 09:59:36;;;;;;;16.37;10.80;;;3.40;99.90;;;;;;4990337;28;20667;-76
2021/12/16 10:02:09;;;;;;;121.53;47.30;;;3.50;99.90;;;;;;4988137;28;20220;-76
2021/12/16 10:04:35;;;;;;;8.70;6.23;;;3.50;99.90;;;;;;4982003;28;20217;-76
2021/12/16 10:07:07;;;;;;;27.23;16.73;;;3.50;99.90;;;;;;4988135;28;20193;-76
2021/12/16 10:09:33;;;;;;;9.13;6.53;;;3.60;99.90;;;;;;4987362;28;20200;-75
2021/12/16 10:12:10;;;;;;;7.70;5.63;;;3.60;99.90;;;;;;4973360;28;20226;-76
2021/12/16 10:17:26;;;;;;;10.23;7.23;;;3.60;99.90;;;;;;4984931;28;20226;-75
2021/12/16 10:19:58;;;;;;;8.33;6.30;;;3.60;99.90;;;;;;4984995;28;20244;-76
2021/12/16 10:22:33;;;;;;;7.03;5.73;;;3.70;99.90;;;;;;4987660;28;20659;-76
2021/12/16 10:25:18;;;;;;;7.27;6.20;;;3.70;99.90;;;;;;4984790;28;20530;-76
2021/12/16 10:27:56;;;;;;;7.63;6.20;;;3.70;99.90;;;;;;4987666;28;20184;-76
2021/12/16 10:30:24;;;;;;;7.27;5.93;;;3.80;99.90;;;;;;4986620;28;20195;-76
2021/12/16 10:32:50;;;;;;;7.47;5.73;;;3.80;99.90;;;;;;4988856;28;20549;-76
2021/12/16 10:35:19;;;;;;;8.27;7.40;;;3.80;99.90;;;;;;4963126;28;20195;-75
2021/12/16 10:37:50;;;;;;;6.53;5.83;;;3.80;99.90;;;;;;4982111;28;20304;-75
2021/12/16 10:40:25;;;;;;;8.30;6.67;;;3.90;99.90;;;;;;4984893;28;20216;-75
2021/12/16 10:42:51;;;;;;;6.40;5.57;;;3.90;99.90;;;;;;4988804;28;20690;-76
2021/12/16 10:45:31;;;;;;;6.10;4.63;;;4.00;99.90;;;;;;4980240;28;20182;-76
2021/12/16 10:48:14;;;;;;;6.30;5.70;;;3.90;99.90;;;;;;4986186;28;20241;-76
2021/12/16 10:50:49;;;;;;;6.03;5.00;;;4.00;99.90;;;;;;4989041;28;20285;-76
2021/12/16 10:53:15;;;;;;;7.87;5.20;;;4.00;99.90;;;;;;4973351;28;20615;-76
2021/12/16 10:56:00;;;;;;;9.63;7.07;;;4.10;99.90;;;;;;4974598;28;20668;-76
2021/12/16 10:58:51;;;;;;;16.90;11.50;;;4.10;99.90;;;;;;4986237;28;20209;-76
2021/12/16 11:01:51;;;;;;;8.00;4.70;;;4.10;99.90;;;;;;4986837;28;20207;-76
2021/12/16 11:04:41;;;;;;;7.03;6.33;;;4.10;99.90;;;;;;4940530;28;20197;-76
2021/12/16 11:07:12;;;;;;;5.10;4.37;;;4.10;99.90;;;;;;4986112;28;20618;-76
2021/12/16 11:09:40;;;;;;;6.20;5.60;;;4.10;99.90;;;;;;4981426;28;20264;-76
2021/12/16 11:12:20;;;;;;;7.87;6.70;;;4.10;99.90;;;;;;4986899;28;20556;-76
2021/12/16 11:14:54;;;;;;;7.70;5.20;;;4.10;99.90;;;;;;4985476;28;20671;-76
2021/12/16 11:17:23;;;;;;;7.03;5.53;;;4.10;99.90;;;;;;4984446;28;20196;-76
2021/12/16 11:20:16;;;;;;;7.03;5.47;;;4.10;99.90;;;;;;4983226;28;20216;-76
2021/12/16 11:22:42;;;;;;;12.13;5.73;;;4.10;99.90;;;;;;4976712;28;20218;-76
2021/12/16 11:25:29;;;;;;;6.10;4.93;;;4.10;99.90;;;;;;4986315;28;20644;-76
2021/12/16 11:28:09;;;;;;;5.97;4.47;;;4.10;99.90;;;;;;4965367;28;20558;-76
2021/12/16 11:30:39;;;;;;;5.60;4.90;;;4.20;99.90;;;;;;5021376;23;20285;-76
2021/12/16 11:33:14;;;;;;;5.97;5.03;;;4.20;99.90;;;;;;4998279;28;20702;-76
2021/12/16 11:35:50;;;;;;;5.93;5.07;;;4.20;99.90;;;;;;5001787;28;20224;-76
2021/12/16 11:38:32;;;;;;;6.33;5.37;;;4.20;99.90;;;;;;4998600;28;20173;-75
2021/12/16 11:41:06;;;;;;;6.67;4.83;;;4.20;99.90;;;;;;5005696;28;20213;-76
2021/12/16 11:43:52;;;;;;;5.57;4.67;;;4.20;99.90;;;;;;5007711;28;20176;-76
2021/12/16 11:46:26;;;;;;;9.70;6.10;;;4.20;99.90;;;;;;4985343;28;20659;-76
2021/12/16 11:48:56;;;;;;;12.90;9.37;;;4.30;99.90;;;;;;5000436;28;20180;-76
2021/12/16 11:51:35;;;;;;;9.23;8.13;;;4.30;99.90;;;;;;5003631;28;20185;-76
2021/12/16 11:54:12;;;;;;;10.50;8.10;;;4.30;99.90;;;;;;4998484;28;20187;-76
2021/12/16 11:57:02;;;;;;;8.37;5.37;;;4.30;99.90;;;;;;4988482;28;20180;-76
2021/12/16 11:59:36;;;;;;;73.07;42.00;;;4.40;99.90;;;;;;5005246;28;20254;-76
2021/12/16 12:02:03;;;;;;;12.07;9.43;;;4.50;99.90;;;;;;5008455;28;20231;-76
2021/12/16 12:04:34;;;;;;;7.07;5.33;;;4.50;99.90;;;;;;5006321;28;20206;-76
2021/12/16 12:07:09;;;;;;;7.67;5.50;;;4.60;99.90;;;;;;5004212;28;20211;-77
2021/12/16 12:09:39;;;;;;;6.27;4.80;;;4.50;99.90;;;;;;5003364;28;20204;-76
2021/12/16 12:12:06;;;;;;;7.53;6.67;;;4.50;99.90;;;;;;5012040;28;20256;-77
2021/12/16 12:14:36;;;;;;;5.97;4.67;;;4.50;99.90;;;;;;5012522;28;20180;-77
2021/12/16 12:17:08;;;;;;;5.47;4.20;;;4.40;99.90;;;;;;5010807;28;20228;-77
2021/12/16 12:19:44;;;;;;;19.03;12.77;;;4.50;99.90;;;;;;4993846;28;20231;-77
2021/12/16 12:22:10;;;;;;;18.60;10.37;;;4.50;99.90;;;;;;4996547;28;20207;-76
2021/12/16 12:24:46;;;;;;;12.10;8.80;;;4.60;99.90;;;;;;4997578;28;20625;-77
2021/12/16 12:27:16;;;;;;;11.83;6.57;;;4.50;99.90;;;;;;5010924;28;20172;-76
2021/12/16 12:29:54;;;;;;;468.30;167.73;;;4.60;99.90;;;;;;5006950;28;20220;-77
2021/12/16 12:32:24;;;;;;;87.63;36.03;;;4.60;99.90;;;;;;4996698;28;20184;-77
2021/12/16 12:35:22;;;;;;;29.07;16.07;;;4.60;99.90;;;;;;5012964;28;20190;-76
2021/12/16 12:37:51;;;;;;;13.67;7.63;;;4.60;99.90;;;;;;4989201;28;20214;-76
2021/12/16 12:40:25;;;;;;;8.43;6.60;;;4.60;99.90;;;;;;5011060;28;20207;-76
2021/12/16 12:42:54;;;;;;;8.13;5.80;;;4.70;99.90;;;;;;5015673;28;20239;-77
2021/12/16 12:45:23;;;;;;;6.47;5.70;;;4.80;99.90;;;;;;5008883;28;20176;-77
2021/12/16 12:47:54;;;;;;;7.07;5.40;;;4.80;99.90;;;;;;5012309;28;20259;-76
2021/12/16 12:50:25;;;;;;;5.53;4.50;;;4.80;99.90;;;;;;4992345;28;20283;-77
2021/12/16 12:52:53;;;;;;;6.53;4.77;;;4.90;99.90;;;;;;5006655;28;20197;-77
2021/12/16 12:55:26;;;;;;;6.73;5.13;;;4.80;99.90;;;;;;5010467;28;20181;-77
2021/12/16 12:58:05;;;;;;;5.97;4.70;;;4.90;99.90;;;;;;5011091;28;20184;-77
2021/12/16 13:00:38;;;;;;;6.20;5.03;;;4.90;99.90;;;;;;5005002;28;20260;-77
2021/12/16 13:03:11;;;;;;;5.30;4.80;;;4.90;99.90;;;;;;4983296;28;20184;-77
2021/12/16 13:05:38;;;;;;;7.20;4.40;;;4.90;99.90;;;;;;4997750;28;20165;-77
2021/12/16 13:08:03;;;;;;;5.43;4.93;;;4.90;99.90;;;;;;5008227;28;20185;-77
2021/12/16 13:10:32;;;;;;;4.93;4.43;;;4.90;99.90;;;;;;4997167;28;20208;-77
2021/12/16 13:16:20;;;;;;;7.93;5.03;;;4.90;99.90;;;;;;5007776;28;20182;-76
2021/12/16 13:30:38;;;;;;;5.80;4.33;;;4.80;99.90;;;;;;5015489;28;20212;-76
2021/12/16 13:33:12;;;;;;;4.93;4.33;;;4.90;99.90;;;;;;5007522;28;20189;-76
2021/12/16 13:35:47;;;;;;;6.77;5.50;;;4.90;99.90;;;;;;5007533;28;20246;-76
2021/12/16 13:38:13;;;;;;;6.03;4.93;;;5.00;99.90;;;;;;4999393;28;20165;-77
2021/12/16 13:40:43;;;;;;;5.63;5.10;;;5.10;99.90;;;;;;4994047;28;20201;-76
2021/12/16 13:43:18;;;;;;;6.93;4.50;;;5.00;99.90;;;;;;5012912;28;20184;-76
2021/12/16 13:46:34;;;;;;;5.20;3.87;;;5.00;99.90;;;;;;5000240;28;20179;-76
2021/12/16 14:01:18;;;;;;;6.27;4.17;;;5.00;99.90;;;;;;5013831;28;20210;-76
2021/12/16 14:04:14;;;;;;;6.33;4.50;;;5.00;99.90;;;;;;5010155;28;20193;-76
2021/12/16 14:06:56;;;;;;;7.77;5.97;;;4.90;99.90;;;;;;5013418;28;20179;-75
2021/12/16 14:09:29;;;;;;;7.77;7.00;;;5.10;99.90;;;;;;5014058;28;20197;-76
2021/12/16 14:14:47;;;;;;;12.70;7.47;;;5.00;99.90;;;;;;5014248;28;20181;-75
2021/12/16 14:17:42;;;;;;;7.13;5.47;;;5.00;99.90;;;;;;5002752;28;20170;-73
2021/12/16 14:23:17;;;;;;;6.87;5.13;;;4.90;99.90;;;;;;5014741;28;20246;-75
2021/12/16 14:31:50;;;;;;;8.20;5.83;;;5.00;99.90;;;;;;5014211;28;20239;-75
2021/12/16 14:45:57;;;;;;;6.03;4.60;;;4.90;99.90;;;;;;5014478;28;20184;-74
2021/12/16 14:48:22;;;;;;;5.37;4.30;;;4.90;99.90;;;;;;5006003;28;20184;-75
2021/12/16 14:51:02;;;;;;;7.77;5.33;;;4.90;99.90;;;;;;5016476;28;20231;-75
2021/12/16 14:53:38;;;;;;;9.67;6.17;;;5.00;99.90;;;;;;4989212;28;20248;-74
2021/12/16 14:56:11;;;;;;;9.50;6.03;;;5.00;99.90;;;;;;5014018;28;20189;-75
2021/12/16 14:58:39;;;;;;;7.90;5.57;;;5.00;99.90;;;;;;4996257;28;20238;-74
2021/12/16 15:01:17;;;;;;;6.40;5.80;;;5.00;99.90;;;;;;4995990;28;20214;-76
2021/12/16 15:03:45;;;;;;;10.37;6.03;;;5.00;99.90;;;;;;5013475;28;20174;-75
2021/12/16 15:06:28;;;;;;;8.13;6.40;;;5.00;99.90;;;;;;5013782;28;20168;-75
2021/12/16 15:12:12;;;;;;;7.33;6.17;;;4.90;99.90;;;;;;5014036;28;20196;-75
2021/12/16 15:17:39;;;;;;;7.23;5.90;;;4.90;99.90;;;;;;5013916;28;20233;-74
2021/12/16 15:44:53;;;;;;;7.33;6.57;;;4.90;99.90;;;;;;5013963;28;20223;-75
2021/12/16 15:47:19;;;;;;;7.60;6.80;;;4.90;99.90;;;;;;5013278;28;20177;-75
2021/12/16 15:49:45;;;;;;;8.40;7.17;;;4.90;99.90;;;;;;4995609;28;20699;-75
2021/12/16 15:52:11;;;;;;;8.77;7.27;;;4.90;99.90;;;;;;4987239;28;20184;-76
2021/12/16 15:54:38;;;;;;;8.53;7.00;;;4.80;99.90;;;;;;5013991;28;20244;-75
2021/12/16 15:57:06;;;;;;;8.83;6.50;;;4.80;99.90;;;;;;5012590;28;20658;-75
2021/12/16 15:59:33;;;;;;;8.57;6.83;;;4.90;99.90;;;;;;4999399;28;20199;-75
2021/12/16 16:01:59;;;;;;;7.30;6.47;;;4.80;99.90;;;;;;5013166;28;20196;-75
2021/12/16 16:04:28;;;;;;;7.67;6.50;;;4.90;99.90;;;;;;5013335;28;20168;-75
2021/12/16 16:07:00;;;;;;;8.53;6.73;;;4.80;99.90;;;;;;5013280;28;20178;-75
2021/12/16 16:09:34;;;;;;;8.73;7.83;;;4.80;99.90;;;;;;5013067;28;20196;-75
2021/12/16 16:12:00;;;;;;;6.77;6.07;;;4.80;99.90;;;;;;4995463;28;20183;-75
2021/12/16 16:14:28;;;;;;;7.00;6.07;;;4.80;99.90;;;;;;5013345;28;20606;-75
2021/12/16 16:16:57;;;;;;;9.03;7.03;;;4.80;99.90;;;;;;5012970;28;20312;-76
2021/12/16 16:19:34;;;;;;;7.27;6.53;;;4.70;99.90;;;;;;5012803;28;20203;-75
2021/12/16 16:22:04;;;;;;;6.87;6.17;;;4.80;99.90;;;;;;5012909;28;20206;-75
2021/12/16 16:24:33;;;;;;;7.60;6.57;;;4.80;99.90;;;;;;5013230;28;20526;-74
2021/12/16 16:27:07;;;;;;;8.53;7.60;;;4.70;99.90;;;;;;5012876;28;20169;-74
2021/12/16 16:29:35;;;;;;;7.53;6.73;;;4.80;99.90;;;;;;4995200;28;20206;-75
2021/12/16 16:32:03;;;;;;;7.40;6.70;;;4.80;99.90;;;;;;5013095;28;20255;-75
2021/12/16 16:34:32;;;;;;;8.07;6.77;;;4.70;99.90;;;;;;5012983;28;20191;-75
2021/12/16 16:37:01;;;;;;;10.40;8.70;;;4.70;99.90;;;;;;5012757;28;20175;-76
2021/12/16 16:39:38;;;;;;;9.50;8.10;;;4.70;99.90;;;;;;4995184;28;20220;-75
2021/12/16 16:42:09;;;;;;;8.60;7.17;;;4.70;99.90;;;;;;5015257;28;20573;-76
2021/12/16 16:44:35;;;;;;;9.03;7.77;;;4.70;99.90;;;;;;5013399;28;20541;-76
2021/12/16 16:47:13;;;;;;;8.60;7.07;;;4.60;99.90;;;;;;4995187;28;20213;-76
2021/12/16 16:49:48;;;;;;;8.03;7.23;;;4.60;99.90;;;;;;5013352;28;20209;-75
2021/12/16 16:52:18;;;;;;;8.03;7.13;;;4.50;99.90;;;;;;5007660;28;20179;-76
2021/12/16 16:54:52;;;;;;;8.53;6.67;;;4.50;99.90;;;;;;5015858;28;20666;-76
2021/12/16 16:57:27;;;;;;;8.13;7.03;;;4.50;99.90;;;;;;5016247;28;20199;-76
2021/12/16 16:59:56;;;;;;;11.20;8.90;;;4.60;99.90;;;;;;5016251;28;20190;-76